Tucson, AZ (85749)

12:07 PM MST on February 10, 2016 (GMT -0700)
CactusJacksTravel.com | | Change Station
CLOSE
Current Station
Personal Weather Station
Location: Tucson, AZ
Elevation: 2690 ft
Nearby Weather Stations

Elev 2690 ft 32.27 °N, 110.77 °W | Updated 280 days ago

Clear
Clear
80 °F
Feels Like 80 °F
N
4
Wind Variable Wind from East
Gusts mph

Today
High -- | Low -- °F
--% Chance of Precip.
Yesterday
High -- | Low -- °F
Precip. -- in
Pressure 30.15 in
Visibility 10.0 miles
Clouds Clear
Dew Point 17 °F
Humidity 9%
Rainfall in
Snow Depth Not available.
7:10 AM 6:04 PM
Waxing Crescent, 6% visible
METAR KDMA 101858Z AUTO 12010G20KT 10SM CLR 25/M08 A3024 RMK AO2 SLP210 T02491085 $
Pressure 30.15 in
Visibility 10.0 miles
Clouds Clear
Dew Point 17 °F
Humidity 9%
Rainfall in
Snow Depth Not available.
7:10 AM 6:04 PM
Waxing Crescent, 6% visible
METAR KDMA 101858Z AUTO 12010G20KT 10SM CLR 25/M08 A3024 RMK AO2 SLP210 T02491085 $

10-Day Weather Forecast

Almanac

Astronomy

Feb. 10, 2016 Rise Set
Actual Time
Civil Twilight
Nautical Twilight
Astronomical Twilight
Moon
Length of Visible Light
Length of Day
Tomorrow will be .
, % of the Moon is Illuminated

Today's Extremes

State Highs State Lows

Community

WunderPhotos

Upload Photos

1,891,921 photos uploaded!

WunderBlog® & News

Nearby

Air Quality

  Air Quality AQ Index Pollutant
Not available.

Snow Depth

Station Depth Elevation

Earthquake Activity

City Distance Mag. Time & Date
Minimum magnitude displayed is 2.5.

Coastal Water Temperatures

Place Temperature

Stations

Nearby Weather Stations

Station Location Temp. Windchill Dew Point Humidity Wind Precip. Elev Updated Type
                   

Watches & Warnings

There are currently no watches in effect.